Погода Жаруна 2 недели

Рондония, Бразилия

13 - 26 июля
  • 13июля
    Сегодня
    +18°
    +30°
    Небольшая облачность
    ВремяПогодаТемператураВлажностьДавлениеВетер, м/сВероятность осадков
    02:00Практически безоблачно+18°C60 %746 мм3.6 м/с5 %
    05:00Ясно и безоблачно+18°C61 %747 мм3.4 м/с5 %
    08:00Ясно и безоблачно+18°C58 %748 мм3.7 м/с5 %
    11:00Ясно и безоблачно+25°C44 %748 мм3.7 м/с5 %
    14:00Небольшая облачность+29°C38 %745 мм3.2 м/с5 %
    17:00Ясно и безоблачно+29°C41 %744 мм2.8 м/с5 %
    20:00Ясно и безоблачно+23°C51 %745 мм3.8 м/с5 %
    23:00Ясно и безоблачно+21°C54 %746 мм3.4 м/с5 %
  • 14июля
    Воскресенье
    +18°
    +32°
    Ясно и безоблачно
    ВремяПогодаТемператураВлажностьДавлениеВетер, м/сВероятность осадков
    02:00Ясно и безоблачно+19°C59 %746 мм2.9 м/с5 %
    05:00Ясно и безоблачно+19°C62 %746 мм2.9 м/с5 %
    08:00Ясно и безоблачно+21°C57 %747 мм3.1 м/с5 %
    11:00Ясно и безоблачно+27°C41 %747 мм3.3 м/с5 %
    14:00Ясно и безоблачно+31°C35 %745 мм2.8 м/с5 %
    17:00Ясно и безоблачно+31°C38 %744 мм1.9 м/с5 %
    20:00Ясно и безоблачно+25°C52 %745 мм3.9 м/с5 %
    23:00Ясно и безоблачно+22°C51 %746 мм3.3 м/с5 %
  • 15июля
    Понедельник
    +19°
    +33°
    Ясно и безоблачно
    ВремяПогодаТемператураВлажностьДавлениеВетер, м/сВероятность осадков
    02:00Ясно и безоблачно+20°C55 %745 мм2.7 м/с5 %
    05:00Ясно и безоблачно+19°C59 %746 мм2.7 м/с5 %
    08:00Ясно и безоблачно+21°C54 %747 мм2.6 м/с5 %
    11:00Ясно и безоблачно+28°C39 %748 мм3.1 м/с5 %
    14:00Ясно и безоблачно+32°C31 %745 мм2.2 м/с5 %
    17:00Ясно и безоблачно+32°C38 %744 мм1.1 м/с5 %
    20:00Ясно и безоблачно+26°C48 %745 мм2.9 м/с5 %
    23:00Ясно и безоблачно+24°C55 %746 мм3.5 м/с5 %
  • 16июля
    Вторник
    +19°
    +33°
    Ясно и безоблачно
    ВремяПогодаТемператураВлажностьДавлениеВетер, м/сВероятность осадков
    02:00Ясно и безоблачно+21°C62 %746 мм2.9 м/с5 %
    05:00Ясно и безоблачно+20°C67 %746 мм2.5 м/с5 %
    08:00Ясно и безоблачно+22°C59 %747 мм2.6 м/с5 %
    11:00Ясно и безоблачно+29°C38 %748 мм2.6 м/с5 %
    14:00Ясно и безоблачно+33°C29 %745 мм2.0 м/с5 %
    17:00Ясно и безоблачно+32°C44 %744 мм0.8 м/с5 %
    20:00Ясно и безоблачно+25°C49 %745 мм2.1 м/с5 %
    23:00Ясно и безоблачно+24°C52 %745 мм2.4 м/с5 %
  • 17июля
    Среда
    +20°
    +34°
    Ясно и безоблачно
    ВремяПогодаТемператураВлажностьДавлениеВетер, м/сВероятность осадков
    02:00Ясно и безоблачно+21°C62 %745 мм2.0 м/с5 %
    05:00Ясно и безоблачно+21°C69 %746 мм2.7 м/с5 %
    08:00Ясно и безоблачно+23°C64 %747 мм2.2 м/с5 %
    11:00Ясно и безоблачно+31°C36 %747 мм2.3 м/с5 %
    14:00Ясно и безоблачно+34°C26 %745 мм1.7 м/с5 %
    17:00Ясно и безоблачно+33°C37 %744 мм1.1 м/с5 %
    20:00Ясно и безоблачно+25°C41 %744 мм2.4 м/с5 %
    23:00Ясно и безоблачно+23°C48 %745 мм2.1 м/с5 %
Мы используем cookies
Соглашаюсь